IGO0012 LTFM-VIDP
Flight info
| Callsign | IGO0012 |
|---|---|
| Flight time | N/A |
| Altitude | 33000 |
| Route | VICEN1R/35L VICEN UT380 ASMAP UL333 LATGA UT363 GURBU UA4 ERZ UN161 INDUR DCT PEMAN N161 EDATA N199 LUSAL M11 RODAR A909 KEKAL/N0459F350 A909 LEMOD N644 REGET G325 HANGU L509 NONIB T400 SULOM A466 ELKUX ELKUX7G |
| Aircraft | A21N/M-SDE3FGHIRWY/LB1 |
Departure
| Time | 2026-05-05 12:22 |
|---|---|
| Airport | İstanbul Airport (LTFM) |
Arrival
| Time | N/A |
|---|---|
| Airport | Indira Gandhi International Airport (VIDP) |
| Time | Latitude | Longitude | Altitude | Speed | Heading |
|---|---|---|---|---|---|
| 2026-05-05 12:21 | 41.41143 | 28.92581 | 11266 ft | 341 kts | 116° |
| 2026-05-05 12:22 | 41.39944 | 28.95397 | 11539 ft | 356 kts | 116° |
| 2026-05-05 12:22 | 41.38704 | 28.98307 | 11793 ft | 370 kts | 116° |
| 2026-05-05 12:22 | 41.37439 | 29.01274 | 12037 ft | 384 kts | 116° |
| 2026-05-05 12:22 | 41.36094 | 29.04429 | 12283 ft | 397 kts | 116° |
| 2026-05-05 12:23 | 41.34740 | 29.07605 | 12531 ft | 409 kts | 117° |
| 2026-05-05 12:23 | 41.33351 | 29.10856 | 12941 ft | 415 kts | 117° |
| 2026-05-05 12:23 | 41.31921 | 29.14200 | 13480 ft | 418 kts | 117° |
| 2026-05-05 12:23 | 41.30491 | 29.17543 | 14019 ft | 420 kts | 117° |
| 2026-05-05 12:24 | 41.29044 | 29.20925 | 14526 ft | 423 kts | 117° |
| 2026-05-05 12:24 | 41.27589 | 29.24321 | 15016 ft | 426 kts | 117° |
| 2026-05-05 12:24 | 41.26123 | 29.27737 | 15539 ft | 428 kts | 117° |
| 2026-05-05 12:24 | 41.24672 | 29.31115 | 16014 ft | 431 kts | 117° |
| 2026-05-05 12:25 | 41.23211 | 29.34513 | 16477 ft | 433 kts | 118° |
| 2026-05-05 12:25 | 41.21711 | 29.37996 | 16943 ft | 436 kts | 118° |
| 2026-05-05 12:25 | 41.20219 | 29.41460 | 17395 ft | 438 kts | 118° |
| 2026-05-05 12:25 | 41.18702 | 29.44979 | 17844 ft | 440 kts | 118° |
| 2026-05-05 12:26 | 41.17193 | 29.48473 | 18265 ft | 442 kts | 118° |
| 2026-05-05 12:26 | 41.15657 | 29.52026 | 18688 ft | 445 kts | 118° |
| 2026-05-05 12:26 | 41.14114 | 29.55588 | 19080 ft | 447 kts | 118° |
| 2026-05-05 12:26 | 41.12564 | 29.59167 | 19463 ft | 450 kts | 118° |
| 2026-05-05 12:27 | 41.11001 | 29.62770 | 19847 ft | 453 kts | 118° |
| 2026-05-05 12:27 | 41.09428 | 29.66388 | 20204 ft | 456 kts | 118° |
| 2026-05-05 12:27 | 41.07856 | 29.70005 | 20541 ft | 459 kts | 118° |
| 2026-05-05 12:27 | 41.06260 | 29.73670 | 20870 ft | 462 kts | 118° |
| 2026-05-05 12:28 | 41.04660 | 29.77341 | 21195 ft | 465 kts | 118° |
| 2026-05-05 12:28 | 41.03045 | 29.81043 | 21506 ft | 467 kts | 118° |
| 2026-05-05 12:28 | 41.01406 | 29.84793 | 21819 ft | 470 kts | 118° |
| 2026-05-05 12:28 | 40.99762 | 29.88551 | 22129 ft | 473 kts | 118° |
| 2026-05-05 12:29 | 40.98127 | 29.92284 | 22455 ft | 475 kts | 118° |
| 2026-05-05 12:29 | 40.96475 | 29.96051 | 22884 ft | 474 kts | 118° |
| 2026-05-05 12:29 | 40.94828 | 29.99802 | 23315 ft | 473 kts | 118° |
| 2026-05-05 12:29 | 40.93183 | 30.03544 | 23719 ft | 473 kts | 118° |
| 2026-05-05 12:30 | 40.91522 | 30.07316 | 24112 ft | 473 kts | 118° |
| 2026-05-05 12:30 | 40.89885 | 30.11031 | 24513 ft | 473 kts | 118° |
| 2026-05-05 12:30 | 40.88235 | 30.14770 | 24914 ft | 472 kts | 118° |
| 2026-05-05 12:30 | 40.86589 | 30.18496 | 25309 ft | 472 kts | 118° |
| 2026-05-05 12:31 | 40.84935 | 30.22236 | 25701 ft | 471 kts | 118° |
| 2026-05-05 12:31 | 40.83290 | 30.25953 | 26089 ft | 470 kts | 118° |
| 2026-05-05 12:31 | 40.81637 | 30.29682 | 26463 ft | 470 kts | 118° |
| 2026-05-05 12:31 | 40.79988 | 30.33397 | 26806 ft | 470 kts | 118° |
| 2026-05-05 12:32 | 40.78358 | 30.37065 | 27155 ft | 469 kts | 118° |
| 2026-05-05 12:32 | 40.76710 | 30.40770 | 27494 ft | 469 kts | 118° |
| 2026-05-05 12:32 | 40.75071 | 30.44452 | 27823 ft | 469 kts | 118° |
| 2026-05-05 12:32 | 40.73409 | 30.48178 | 28147 ft | 468 kts | 117° |
| 2026-05-05 12:33 | 40.71766 | 30.51861 | 28490 ft | 467 kts | 117° |
| 2026-05-05 12:33 | 40.70135 | 30.55510 | 28822 ft | 466 kts | 117° |
| 2026-05-05 12:33 | 40.68494 | 30.59179 | 29110 ft | 467 kts | 117° |
| 2026-05-05 12:33 | 40.66844 | 30.62860 | 29394 ft | 467 kts | 117° |
| 2026-05-05 12:34 | 40.65258 | 30.66555 | 29655 ft | 466 kts | 115° |
| 2026-05-05 12:34 | 40.63844 | 30.70351 | 29911 ft | 465 kts | 111° |
| 2026-05-05 12:34 | 40.62611 | 30.74273 | 30183 ft | 463 kts | 107° |
| 2026-05-05 12:34 | 40.61588 | 30.78233 | 30436 ft | 461 kts | 103° |
| 2026-05-05 12:35 | 40.60710 | 30.82297 | 30713 ft | 460 kts | 102° |
| 2026-05-05 12:35 | 40.59872 | 30.86338 | 30981 ft | 459 kts | 101° |
| 2026-05-05 12:35 | 40.59039 | 30.90346 | 31218 ft | 459 kts | 101° |
| 2026-05-05 12:35 | 40.58202 | 30.94350 | 31400 ft | 460 kts | 101° |
| 2026-05-05 12:36 | 40.57350 | 30.98396 | 31575 ft | 461 kts | 101° |
| 2026-05-05 12:36 | 40.56482 | 31.02499 | 31748 ft | 462 kts | 101° |
| 2026-05-05 12:36 | 40.55620 | 31.06550 | 31925 ft | 463 kts | 101° |
| 2026-05-05 12:36 | 40.54758 | 31.10588 | 32097 ft | 464 kts | 101° |
| 2026-05-05 12:37 | 40.53888 | 31.14652 | 32254 ft | 465 kts | 101° |
| 2026-05-05 12:37 | 40.53006 | 31.18768 | 32406 ft | 466 kts | 101° |
| 2026-05-05 12:37 | 40.52129 | 31.22847 | 32571 ft | 466 kts | 101° |
| 2026-05-05 12:37 | 40.51248 | 31.26918 | 32728 ft | 467 kts | 101° |
| 2026-05-05 12:38 | 40.50362 | 31.31010 | 32851 ft | 468 kts | 101° |
| 2026-05-05 12:38 | 40.49483 | 31.35068 | 32984 ft | 468 kts | 101° |
| 2026-05-05 12:38 | 40.47707 | 31.43243 | 32991 ft | 469 kts | 101° |
| 2026-05-05 12:39 | 40.45911 | 31.51475 | 32985 ft | 469 kts | 101° |
| 2026-05-05 12:39 | 40.44118 | 31.59667 | 32982 ft | 469 kts | 101° |
| 2026-05-05 12:40 | 40.42325 | 31.67837 | 32972 ft | 469 kts | 101° |
| 2026-05-05 12:40 | 40.40527 | 31.76018 | 32972 ft | 470 kts | 101° |
| 2026-05-05 12:41 | 40.38714 | 31.84233 | 32971 ft | 470 kts | 101° |
| 2026-05-05 12:41 | 40.36901 | 31.92409 | 32967 ft | 471 kts | 101° |
| 2026-05-05 12:42 | 40.35063 | 32.00648 | 32966 ft | 471 kts | 101° |
| 2026-05-05 12:42 | 40.33240 | 32.08758 | 32968 ft | 470 kts | 100° |
| 2026-05-05 12:43 | 40.31584 | 32.17009 | 32971 ft | 468 kts | 99° |
| 2026-05-05 12:43 | 40.29974 | 32.25190 | 32975 ft | 468 kts | 99° |
| 2026-05-05 12:44 | 40.28355 | 32.33367 | 32976 ft | 468 kts | 99° |
| 2026-05-05 12:44 | 40.26716 | 32.41612 | 32970 ft | 468 kts | 99° |
| 2026-05-05 12:45 | 40.25084 | 32.49778 | 32966 ft | 468 kts | 99° |
| 2026-05-05 12:45 | 40.23441 | 32.57976 | 32966 ft | 469 kts | 99° |
| 2026-05-05 12:46 | 40.21790 | 32.66175 | 32967 ft | 467 kts | 99° |
| 2026-05-05 12:46 | 40.20135 | 32.74365 | 32958 ft | 468 kts | 99° |
| 2026-05-05 12:47 | 40.18479 | 32.82529 | 32943 ft | 469 kts | 99° |
| 2026-05-05 12:47 | 40.16815 | 32.90699 | 32949 ft | 469 kts | 99° |
| 2026-05-05 12:48 | 40.15506 | 32.98963 | 32928 ft | 464 kts | 93° |
| 2026-05-05 12:48 | 40.14925 | 33.07286 | 32948 ft | 458 kts | 86° |
| 2026-05-05 12:49 | 40.15018 | 33.15563 | 32953 ft | 455 kts | 82° |
| 2026-05-05 12:49 | 40.15279 | 33.23780 | 32944 ft | 455 kts | 82° |
| 2026-05-05 12:50 | 40.15526 | 33.31987 | 32944 ft | 454 kts | 82° |
| 2026-05-05 12:50 | 40.15757 | 33.40221 | 32939 ft | 455 kts | 82° |
| 2026-05-05 12:51 | 40.15977 | 33.48407 | 32917 ft | 454 kts | 83° |
| 2026-05-05 12:51 | 40.16192 | 33.56602 | 32927 ft | 454 kts | 83° |
| 2026-05-05 12:52 | 40.16402 | 33.64811 | 32937 ft | 454 kts | 83° |
| 2026-05-05 12:52 | 40.16603 | 33.73010 | 32910 ft | 454 kts | 84° |
| 2026-05-05 12:53 | 40.16632 | 33.81240 | 32933 ft | 457 kts | 88° |
| 2026-05-05 12:53 | 40.15987 | 33.89498 | 32922 ft | 460 kts | 95° |
| 2026-05-05 12:54 | 40.14471 | 34.01813 | 32910 ft | 459 kts | 94° |
| 2026-05-05 12:55 | 40.13573 | 34.10073 | 32917 ft | 460 kts | 94° |
| 2026-05-05 12:55 | 40.12682 | 34.18265 | 32936 ft | 460 kts | 94° |
| 2026-05-05 12:56 | 40.11780 | 34.26501 | 32939 ft | 460 kts | 94° |
| 2026-05-05 12:56 | 40.10869 | 34.34760 | 32924 ft | 460 kts | 95° |
| 2026-05-05 12:57 | 40.09959 | 34.42949 | 32936 ft | 460 kts | 95° |
| 2026-05-05 12:57 | 40.09038 | 34.51190 | 32938 ft | 459 kts | 95° |
| 2026-05-05 12:58 | 40.08110 | 34.59430 | 32929 ft | 460 kts | 95° |
| 2026-05-05 12:58 | 40.07183 | 34.67611 | 32933 ft | 460 kts | 96° |
| 2026-05-05 12:59 | 40.06249 | 34.75805 | 32950 ft | 460 kts | 96° |
| 2026-05-05 12:59 | 40.05303 | 34.84034 | 32948 ft | 460 kts | 96° |
| 2026-05-05 13:00 | 40.03880 | 34.96333 | 32963 ft | 461 kts | 96° |
| 2026-05-05 13:01 | 40.01958 | 35.12802 | 32961 ft | 461 kts | 97° |
| 2026-05-05 13:01 | 40.00989 | 35.21005 | 32958 ft | 461 kts | 97° |
| 2026-05-05 13:02 | 40.00022 | 35.29158 | 32953 ft | 462 kts | 97° |
| 2026-05-05 13:02 | 39.99037 | 35.37381 | 32953 ft | 463 kts | 97° |
| 2026-05-05 13:03 | 39.97998 | 35.45647 | 32960 ft | 464 kts | 98° |
| 2026-05-05 13:03 | 39.96947 | 35.53931 | 32966 ft | 464 kts | 98° |
| 2026-05-05 13:04 | 39.95903 | 35.62148 | 32961 ft | 463 kts | 98° |
| 2026-05-05 13:04 | 39.94847 | 35.70393 | 32952 ft | 462 kts | 99° |
| 2026-05-05 13:05 | 39.93797 | 35.78567 | 32944 ft | 462 kts | 99° |
| 2026-05-05 13:05 | 39.92731 | 35.86828 | 32939 ft | 461 kts | 99° |
| 2026-05-05 13:06 | 39.91667 | 35.95005 | 32933 ft | 460 kts | 99° |
| 2026-05-05 13:06 | 39.90594 | 36.03204 | 32940 ft | 461 kts | 99° |
| 2026-05-05 13:07 | 39.89522 | 36.11353 | 32937 ft | 462 kts | 99° |
| 2026-05-05 13:07 | 39.88433 | 36.19587 | 32936 ft | 462 kts | 99° |
| 2026-05-05 13:08 | 39.87342 | 36.27775 | 32935 ft | 462 kts | 99° |
| 2026-05-05 13:08 | 39.86148 | 36.35955 | 32929 ft | 463 kts | 101° |
| 2026-05-05 13:09 | 39.85020 | 36.44183 | 32925 ft | 464 kts | 99° |
| 2026-05-05 13:09 | 39.83939 | 36.52426 | 32918 ft | 464 kts | 99° |
| 2026-05-05 13:10 | 39.82849 | 36.60627 | 32919 ft | 464 kts | 100° |
| 2026-05-05 13:10 | 39.81753 | 36.68804 | 32921 ft | 463 kts | 101° |
| 2026-05-05 13:11 | 39.80647 | 36.76981 | 32931 ft | 462 kts | 101° |
| 2026-05-05 13:11 | 39.79730 | 36.85213 | 32936 ft | 463 kts | 96° |
| 2026-05-05 13:12 | 39.79485 | 36.93512 | 32937 ft | 464 kts | 90° |
| 2026-05-05 13:12 | 39.79936 | 37.01854 | 32935 ft | 465 kts | 85° |
| 2026-05-05 13:13 | 39.80637 | 37.10178 | 32937 ft | 465 kts | 85° |
| 2026-05-05 13:13 | 39.81325 | 37.18480 | 32942 ft | 464 kts | 85° |
| 2026-05-05 13:14 | 39.81995 | 37.26779 | 32937 ft | 464 kts | 85° |
| 2026-05-05 13:14 | 39.82656 | 37.35096 | 32924 ft | 465 kts | 85° |
| 2026-05-05 13:15 | 39.83310 | 37.43415 | 32919 ft | 466 kts | 85° |
| 2026-05-05 13:15 | 39.83947 | 37.51703 | 32914 ft | 465 kts | 86° |
| 2026-05-05 13:16 | 39.84585 | 37.60070 | 32916 ft | 466 kts | 86° |
| 2026-05-05 13:16 | 39.85214 | 37.68394 | 32920 ft | 466 kts | 86° |
| 2026-05-05 13:17 | 39.85838 | 37.76747 | 32927 ft | 466 kts | 86° |
| 2026-05-05 13:17 | 39.86457 | 37.85084 | 32922 ft | 466 kts | 87° |
| 2026-05-05 13:18 | 39.87069 | 37.93437 | 32914 ft | 466 kts | 87° |
| 2026-05-05 13:18 | 39.87677 | 38.01788 | 32901 ft | 466 kts | 87° |
| 2026-05-05 13:19 | 39.88285 | 38.10153 | 32898 ft | 467 kts | 87° |
| 2026-05-05 13:19 | 39.88893 | 38.18568 | 32898 ft | 467 kts | 87° |
| 2026-05-05 13:20 | 39.89488 | 38.26897 | 32905 ft | 466 kts | 87° |
| 2026-05-05 13:20 | 39.90080 | 38.35263 | 32910 ft | 466 kts | 87° |
| 2026-05-05 13:21 | 39.90666 | 38.43631 | 32912 ft | 466 kts | 87° |
| 2026-05-05 13:21 | 39.91247 | 38.52024 | 32915 ft | 467 kts | 87° |
| 2026-05-05 13:22 | 39.91821 | 38.60389 | 32928 ft | 467 kts | 87° |
| 2026-05-05 13:22 | 39.92392 | 38.68784 | 32938 ft | 467 kts | 88° |
| 2026-05-05 13:23 | 39.92956 | 38.77178 | 32931 ft | 468 kts | 88° |
| 2026-05-05 13:23 | 39.93512 | 38.85577 | 32936 ft | 468 kts | 88° |
| 2026-05-05 13:24 | 39.93818 | 38.93928 | 32937 ft | 465 kts | 92° |
| 2026-05-05 13:24 | 39.93941 | 39.02320 | 32932 ft | 465 kts | 92° |
| 2026-05-05 13:25 | 39.94062 | 39.10694 | 32925 ft | 466 kts | 92° |
| 2026-05-05 13:25 | 39.94195 | 39.19074 | 32928 ft | 466 kts | 92° |
| 2026-05-05 13:26 | 39.94326 | 39.27494 | 32919 ft | 466 kts | 92° |
| 2026-05-05 13:26 | 39.94452 | 39.35870 | 32927 ft | 467 kts | 92° |
| 2026-05-05 13:27 | 39.94572 | 39.44285 | 32928 ft | 467 kts | 92° |
| 2026-05-05 13:27 | 39.94685 | 39.52725 | 32945 ft | 466 kts | 92° |
| 2026-05-05 13:28 | 39.94791 | 39.61122 | 32940 ft | 466 kts | 92° |
| 2026-05-05 13:28 | 39.94894 | 39.69509 | 32948 ft | 466 kts | 93° |
| 2026-05-05 13:29 | 39.94992 | 39.77919 | 32933 ft | 466 kts | 93° |
| 2026-05-05 13:29 | 39.95084 | 39.86331 | 32927 ft | 466 kts | 93° |
| 2026-05-05 13:30 | 39.95168 | 39.94705 | 32925 ft | 467 kts | 93° |
| 2026-05-05 13:30 | 39.95238 | 40.03106 | 32923 ft | 467 kts | 93° |
| 2026-05-05 13:31 | 39.95306 | 40.11580 | 32918 ft | 468 kts | 93° |
| 2026-05-05 13:31 | 39.95369 | 40.19989 | 32919 ft | 467 kts | 93° |
| 2026-05-05 13:32 | 39.95427 | 40.28377 | 32913 ft | 467 kts | 93° |
| 2026-05-05 13:32 | 39.95478 | 40.36845 | 32905 ft | 467 kts | 93° |
| 2026-05-05 13:33 | 39.95523 | 40.45273 | 32917 ft | 468 kts | 93° |
| 2026-05-05 13:33 | 39.95563 | 40.53721 | 32905 ft | 468 kts | 93° |
| 2026-05-05 13:34 | 39.95597 | 40.62132 | 32904 ft | 468 kts | 93° |
| 2026-05-05 13:34 | 39.95622 | 40.70594 | 32916 ft | 468 kts | 94° |
| 2026-05-05 13:35 | 39.95641 | 40.79037 | 32930 ft | 468 kts | 94° |
| 2026-05-05 13:35 | 39.95657 | 40.87469 | 32946 ft | 468 kts | 94° |
| 2026-05-05 13:36 | 39.95669 | 40.95924 | 32940 ft | 468 kts | 94° |
| 2026-05-05 13:36 | 39.95675 | 41.04329 | 32940 ft | 467 kts | 94° |
| 2026-05-05 13:37 | 39.95674 | 41.12796 | 32937 ft | 468 kts | 94° |
| 2026-05-05 13:37 | 39.95752 | 41.21254 | 32938 ft | 469 kts | 90° |
| 2026-05-05 13:38 | 39.96307 | 41.29664 | 32935 ft | 472 kts | 88° |
| 2026-05-05 13:38 | 39.96952 | 41.38124 | 32937 ft | 471 kts | 88° |
| 2026-05-05 13:39 | 39.97586 | 41.46601 | 32940 ft | 472 kts | 88° |
| 2026-05-05 13:39 | 39.98207 | 41.55108 | 32944 ft | 473 kts | 88° |
| 2026-05-05 13:40 | 39.98821 | 41.63599 | 32949 ft | 472 kts | 88° |
| 2026-05-05 13:40 | 39.99426 | 41.72069 | 32940 ft | 471 kts | 88° |
| 2026-05-05 13:41 | 40.00036 | 41.80558 | 32946 ft | 472 kts | 88° |
| 2026-05-05 13:41 | 40.00650 | 41.89018 | 32943 ft | 472 kts | 88° |
| 2026-05-05 13:42 | 40.01262 | 41.97524 | 32945 ft | 472 kts | 88° |
| 2026-05-05 13:42 | 40.01867 | 42.06022 | 32934 ft | 473 kts | 88° |
| 2026-05-05 13:43 | 40.02467 | 42.14550 | 32936 ft | 473 kts | 88° |
| 2026-05-05 13:43 | 40.03061 | 42.23056 | 32945 ft | 474 kts | 88° |
| 2026-05-05 13:44 | 40.03648 | 42.31584 | 32934 ft | 475 kts | 88° |
| 2026-05-05 13:44 | 40.04224 | 42.40057 | 32943 ft | 475 kts | 88° |
| 2026-05-05 13:45 | 40.04787 | 42.48656 | 32939 ft | 475 kts | 89° |
| 2026-05-05 13:45 | 40.05309 | 42.57148 | 32944 ft | 476 kts | 89° |
| 2026-05-05 13:46 | 40.05833 | 42.65766 | 32946 ft | 476 kts | 89° |
| 2026-05-05 13:46 | 40.06353 | 42.74337 | 32961 ft | 477 kts | 89° |
| 2026-05-05 13:47 | 40.06865 | 42.82875 | 32965 ft | 477 kts | 89° |
| 2026-05-05 13:47 | 40.07376 | 42.91497 | 32959 ft | 477 kts | 89° |
| 2026-05-05 13:48 | 40.07877 | 43.00053 | 32961 ft | 477 kts | 90° |
| 2026-05-05 13:48 | 40.08375 | 43.08666 | 32969 ft | 478 kts | 90° |
| 2026-05-05 13:49 | 40.08874 | 43.17327 | 32962 ft | 479 kts | 90° |
| 2026-05-05 13:49 | 40.09362 | 43.25954 | 32960 ft | 480 kts | 90° |
| 2026-05-05 13:50 | 40.09846 | 43.34651 | 32951 ft | 482 kts | 90° |
| 2026-05-05 13:50 | 40.10323 | 43.43317 | 32946 ft | 483 kts | 90° |
| 2026-05-05 13:51 | 40.10794 | 43.52045 | 32946 ft | 483 kts | 90° |
| 2026-05-05 13:51 | 40.11257 | 43.60753 | 32943 ft | 484 kts | 90° |
| 2026-05-05 13:52 | 40.11993 | 43.69479 | 32918 ft | 488 kts | 85° |
| 2026-05-05 13:52 | 40.13243 | 43.78155 | 32897 ft | 490 kts | 84° |
| 2026-05-05 13:53 | 40.14548 | 43.86877 | 32883 ft | 491 kts | 84° |
| 2026-05-05 13:53 | 40.15834 | 43.95615 | 32884 ft | 491 kts | 84° |
| 2026-05-05 13:54 | 40.17106 | 44.04342 | 32879 ft | 491 kts | 84° |
| 2026-05-05 13:54 | 40.18369 | 44.13073 | 32873 ft | 493 kts | 84° |
| 2026-05-05 13:55 | 40.19630 | 44.21838 | 32883 ft | 495 kts | 84° |
| 2026-05-05 13:55 | 40.20886 | 44.30632 | 32891 ft | 495 kts | 84° |
| 2026-05-05 13:56 | 40.22139 | 44.39442 | 32900 ft | 495 kts | 84° |
| 2026-05-05 13:56 | 40.23387 | 44.48277 | 32911 ft | 495 kts | 84° |
| 2026-05-05 13:57 | 40.24627 | 44.57095 | 32938 ft | 495 kts | 84° |
| 2026-05-05 13:57 | 40.25856 | 44.65911 | 32957 ft | 495 kts | 85° |
| 2026-05-05 13:58 | 40.27088 | 44.74756 | 32983 ft | 495 kts | 85° |
| 2026-05-05 13:58 | 40.28301 | 44.83542 | 32994 ft | 496 kts | 85° |
| 2026-05-05 13:59 | 40.30114 | 44.96771 | 33003 ft | 495 kts | 85° |
| 2026-05-05 14:00 | 40.31699 | 45.08425 | 33010 ft | 496 kts | 85° |
| 2026-05-05 14:00 | 40.33070 | 45.18578 | 33014 ft | 497 kts | 86° |
| 2026-05-05 14:01 | 40.34243 | 45.27343 | 33008 ft | 499 kts | 86° |
| 2026-05-05 14:01 | 40.35432 | 45.36246 | 33012 ft | 500 kts | 86° |
| 2026-05-05 14:02 | 40.36613 | 45.45158 | 33011 ft | 501 kts | 86° |
| 2026-05-05 14:02 | 40.37798 | 45.54152 | 33014 ft | 502 kts | 86° |
| 2026-05-05 14:03 | 40.38973 | 45.63122 | 33012 ft | 502 kts | 86° |
| 2026-05-05 14:03 | 40.40234 | 45.72105 | 33011 ft | 505 kts | 85° |
| 2026-05-05 14:04 | 40.41568 | 45.81126 | 33008 ft | 504 kts | 85° |
| 2026-05-05 14:04 | 40.42877 | 45.90091 | 33020 ft | 507 kts | 85° |
| 2026-05-05 14:05 | 40.44184 | 45.99132 | 33017 ft | 507 kts | 85° |
| 2026-05-05 14:05 | 40.45486 | 46.08209 | 33013 ft | 508 kts | 86° |
| 2026-05-05 14:06 | 40.46776 | 46.17260 | 32993 ft | 508 kts | 86° |
| 2026-05-05 14:06 | 40.48065 | 46.26366 | 32973 ft | 507 kts | 86° |
| 2026-05-05 14:07 | 40.49342 | 46.35437 | 32945 ft | 507 kts | 86° |
| 2026-05-05 14:07 | 40.50611 | 46.44503 | 32937 ft | 508 kts | 86° |
| 2026-05-05 14:08 | 40.51879 | 46.53614 | 32926 ft | 508 kts | 86° |
| 2026-05-05 14:08 | 40.53136 | 46.62693 | 32914 ft | 507 kts | 86° |
| 2026-05-05 14:09 | 40.54386 | 46.71793 | 32895 ft | 507 kts | 86° |
| 2026-05-05 14:09 | 40.55623 | 46.80831 | 32883 ft | 508 kts | 86° |
| 2026-05-05 14:10 | 40.56863 | 46.89951 | 32876 ft | 508 kts | 86° |
| 2026-05-05 14:10 | 40.58097 | 46.99089 | 32863 ft | 509 kts | 86° |
| 2026-05-05 14:11 | 40.59312 | 47.08152 | 32853 ft | 509 kts | 86° |
| 2026-05-05 14:11 | 40.60313 | 47.17343 | 32854 ft | 504 kts | 92° |
| 2026-05-05 14:12 | 40.60491 | 47.26409 | 32861 ft | 495 kts | 99° |
| 2026-05-05 14:12 | 40.60215 | 47.35350 | 32866 ft | 493 kts | 100° |
| 2026-05-05 14:13 | 40.59924 | 47.44332 | 32870 ft | 494 kts | 99° |
| 2026-05-05 14:13 | 40.59649 | 47.53377 | 32877 ft | 493 kts | 99° |
| 2026-05-05 14:14 | 40.59375 | 47.62357 | 32880 ft | 494 kts | 99° |
| 2026-05-05 14:14 | 40.59099 | 47.71322 | 32881 ft | 494 kts | 100° |
| 2026-05-05 14:15 | 40.58816 | 47.80314 | 32886 ft | 492 kts | 100° |
| 2026-05-05 14:15 | 40.58540 | 47.89230 | 32889 ft | 493 kts | 98° |
| 2026-05-05 14:16 | 40.58767 | 47.98294 | 32901 ft | 501 kts | 91° |
| 2026-05-05 14:16 | 40.59737 | 48.07369 | 32921 ft | 504 kts | 86° |
| 2026-05-05 14:17 | 40.60866 | 48.16422 | 32923 ft | 503 kts | 87° |
| 2026-05-05 14:17 | 40.61933 | 48.25459 | 32918 ft | 502 kts | 87° |
| 2026-05-05 14:18 | 40.62976 | 48.34476 | 32924 ft | 501 kts | 87° |
| 2026-05-05 14:18 | 40.64011 | 48.43448 | 32932 ft | 500 kts | 87° |
| 2026-05-05 14:19 | 40.65052 | 48.52509 | 32938 ft | 500 kts | 87° |
| 2026-05-05 14:19 | 40.66072 | 48.61447 | 32950 ft | 499 kts | 87° |
| 2026-05-05 14:20 | 40.67089 | 48.70417 | 32945 ft | 497 kts | 88° |
| 2026-05-05 14:20 | 40.68101 | 48.79407 | 32944 ft | 496 kts | 88° |
| 2026-05-05 14:21 | 40.69094 | 48.88295 | 32948 ft | 495 kts | 88° |
| 2026-05-05 14:21 | 40.70080 | 48.97197 | 32944 ft | 495 kts | 88° |
| 2026-05-05 14:22 | 40.71066 | 49.06139 | 32937 ft | 495 kts | 88° |
| 2026-05-05 14:22 | 40.72015 | 49.14999 | 32946 ft | 493 kts | 89° |
| 2026-05-05 14:23 | 40.72420 | 49.23880 | 32944 ft | 490 kts | 97° |
| 2026-05-05 14:23 | 40.72023 | 49.32630 | 32946 ft | 484 kts | 104° |
| 2026-05-05 14:24 | 40.71049 | 49.41089 | 32949 ft | 480 kts | 107° |
| 2026-05-05 14:24 | 40.70021 | 49.49551 | 32945 ft | 481 kts | 107° |
| 2026-05-05 14:25 | 40.69003 | 49.57980 | 32933 ft | 480 kts | 107° |
| 2026-05-05 14:25 | 40.67978 | 49.66425 | 32940 ft | 480 kts | 108° |
| 2026-05-05 14:26 | 40.66960 | 49.74773 | 32943 ft | 478 kts | 108° |
| 2026-05-05 14:26 | 40.65929 | 49.83154 | 32935 ft | 478 kts | 108° |
| 2026-05-05 14:27 | 40.64899 | 49.91516 | 32935 ft | 478 kts | 108° |
| 2026-05-05 14:27 | 40.63870 | 49.99814 | 32931 ft | 477 kts | 108° |
| 2026-05-05 14:28 | 40.62841 | 50.08030 | 32935 ft | 477 kts | 108° |